Time;durP1;ratioP1;P1;durP2;ratioP2;P2;SDS_P1;SDS_P2;PMS_P1;PMS_P2;Temp;Humidity;BMP_temperature;BMP_pressure;BME280_temperature;BME280_humidity;BME280_pressure;Samples;Min_cycle;Max_cycle;Signal;HPM_P1;HPM_P2
2022/12/06 00:00:09;;;;;;;25.17;21.90;;;4.30;99.90;;;;;;5067397;28;20315;-52
2022/12/06 00:02:37;;;;;;;38.93;33.37;;;4.30;99.90;;;;;;5067101;28;20635;-52
2022/12/06 00:05:06;;;;;;;28.80;24.33;;;4.30;99.90;;;;;;5061056;28;20292;-52
2022/12/06 00:07:34;;;;;;;31.07;27.33;;;4.30;99.90;;;;;;5065618;28;20252;-52
2022/12/06 00:10:05;;;;;;;53.83;40.43;;;4.30;99.90;;;;;;5068960;28;20213;-52
2022/12/06 00:12:33;;;;;;;31.13;25.50;;;4.30;99.90;;;;;;5068065;28;20263;-50
2022/12/06 00:15:01;;;;;;;38.33;34.93;;;4.30;99.90;;;;;;5068767;28;20302;-52
2022/12/06 00:17:29;;;;;;;45.27;32.67;;;4.20;99.90;;;;;;5062342;28;20263;-52
2022/12/06 00:19:57;;;;;;;31.47;26.00;;;4.30;99.90;;;;;;5069495;28;20289;-52
2022/12/06 00:22:26;;;;;;;37.17;33.27;;;4.30;99.90;;;;;;5071614;28;20205;-52
2022/12/06 00:24:54;;;;;;;52.33;39.50;;;4.20;99.90;;;;;;5072044;28;20289;-52
2022/12/06 00:27:24;;;;;;;24.83;20.93;;;4.20;99.90;;;;;;5064897;28;20631;-52
2022/12/06 00:29:52;;;;;;;40.67;36.20;;;4.20;99.90;;;;;;5071929;28;20661;-52
2022/12/06 00:32:20;;;;;;;46.83;39.40;;;4.30;99.90;;;;;;5071830;28;20643;-52
2022/12/06 00:34:48;;;;;;;25.53;23.03;;;4.20;99.90;;;;;;5071846;28;20825;-52
2022/12/06 00:37:16;;;;;;;53.07;47.27;;;4.20;99.90;;;;;;5071160;28;20302;-52
2022/12/06 00:39:44;;;;;;;29.87;26.77;;;4.20;99.90;;;;;;5072263;28;20855;-52
2022/12/06 00:42:13;;;;;;;41.33;36.90;;;4.20;99.90;;;;;;5071964;28;20241;-52
2022/12/06 00:44:42;;;;;;;62.70;36.10;;;4.20;99.90;;;;;;5072159;28;20239;-52
2022/12/06 00:47:10;;;;;;;53.40;46.60;;;4.20;99.90;;;;;;5071923;28;20221;-52
2022/12/06 00:49:38;;;;;;;27.60;24.30;;;4.20;99.90;;;;;;5072324;28;20308;-52
2022/12/06 00:52:06;;;;;;;60.00;34.77;;;4.10;99.90;;;;;;5071603;28;20657;-52
2022/12/06 00:54:34;;;;;;;63.73;37.37;;;4.20;99.90;;;;;;5069862;28;20212;-52
2022/12/06 00:57:03;;;;;;;46.87;38.17;;;4.20;99.90;;;;;;5069867;28;20240;-52
2022/12/06 00:59:31;;;;;;;129.23;52.30;;;4.20;99.90;;;;;;5071945;28;20306;-52
2022/12/06 01:02:00;;;;;;;65.73;57.90;;;4.20;99.90;;;;;;5071174;28;20294;-52
2022/12/06 01:04:28;;;;;;;38.50;35.33;;;4.10;99.90;;;;;;5071627;28;20292;-52
2022/12/06 01:06:56;;;;;;;32.33;28.93;;;4.20;99.90;;;;;;5069993;28;20267;-51
2022/12/06 01:09:25;;;;;;;48.60;42.90;;;4.20;99.90;;;;;;5069763;28;20761;-52
2022/12/06 01:11:53;;;;;;;37.07;33.07;;;4.20;99.90;;;;;;5071246;28;20215;-55
2022/12/06 01:14:21;;;;;;;59.87;53.50;;;4.20;99.90;;;;;;5071686;28;20304;-52
2022/12/06 01:16:49;;;;;;;33.37;29.77;;;4.20;99.90;;;;;;5071522;28;20296;-52
2022/12/06 01:19:18;;;;;;;43.67;36.83;;;4.20;99.90;;;;;;5071073;28;20236;-52
2022/12/06 01:21:48;;;;;;;37.30;28.03;;;4.20;99.90;;;;;;5071100;28;20232;-52
2022/12/06 01:24:16;;;;;;;47.60;33.90;;;4.20;99.90;;;;;;5071529;28;20211;-52
2022/12/06 01:26:44;;;;;;;45.07;40.93;;;4.30;99.90;;;;;;5071113;28;20744;-52
2022/12/06 01:29:12;;;;;;;53.93;38.77;;;4.20;99.90;;;;;;5071435;28;20253;-52
2022/12/06 01:31:40;;;;;;;33.80;30.23;;;4.20;99.90;;;;;;5069826;28;20299;-52
2022/12/06 01:34:14;;;;;;;148.80;76.00;;;4.20;99.90;;;;;;5070868;28;20240;-52
2022/12/06 01:36:44;;;;;;;46.47;37.43;;;4.20;99.90;;;;;;5071107;28;20230;-52
2022/12/06 01:39:12;;;;;;;31.13;25.63;;;4.20;99.90;;;;;;5071207;28;20271;-52
2022/12/06 01:41:41;;;;;;;54.40;47.97;;;4.20;99.90;;;;;;5070746;28;20205;-53
2022/12/06 01:44:40;;;;;;;58.53;32.80;;;4.20;99.90;;;;;;5069766;28;20304;-52
2022/12/06 01:47:13;;;;;;;127.53;73.30;;;4.10;99.90;;;;;;5057682;28;20294;-52
2022/12/06 01:49:44;;;;;;;31.97;28.57;;;4.10;99.90;;;;;;5070817;28;20316;-51
2022/12/06 01:52:14;;;;;;;49.77;44.60;;;4.10;99.90;;;;;;5070631;28;20272;-52
2022/12/06 01:54:42;;;;;;;123.43;65.77;;;4.20;99.90;;;;;;5071163;28;20292;-52
2022/12/06 01:57:13;;;;;;;28.03;25.03;;;4.20;99.90;;;;;;5070129;28;20299;-52
2022/12/06 01:59:42;;;;;;;39.50;30.53;;;4.20;99.90;;;;;;5070754;28;20319;-52
2022/12/06 02:02:10;;;;;;;40.27;35.87;;;4.20;99.90;;;;;;5061235;28;20304;-52
2022/12/06 02:04:39;;;;;;;24.30;21.70;;;4.20;99.90;;;;;;5070951;28;20212;-52
2022/12/06 02:07:08;;;;;;;65.87;38.17;;;4.10;99.90;;;;;;5067782;28;20312;-52
2022/12/06 02:09:38;;;;;;;52.53;32.83;;;4.10;99.90;;;;;;5068744;28;20243;-51
2022/12/06 02:12:12;;;;;;;43.57;30.23;;;4.10;99.90;;;;;;5062349;28;20296;-52
2022/12/06 02:14:42;;;;;;;31.80;28.70;;;4.10;99.90;;;;;;5070154;28;20296;-52
2022/12/06 02:17:25;;;;;;;35.53;32.37;;;4.00;99.90;;;;;;5070390;28;20298;-52
2022/12/06 02:20:19;;;;;;;33.83;25.33;;;4.10;99.90;;;;;;5070229;28;20689;-52
2022/12/06 02:23:26;;;;;;;48.10;42.87;;;4.10;99.90;;;;;;5069929;28;20290;-52
2022/12/06 02:26:32;;;;;;;37.50;33.97;;;4.10;99.90;;;;;;5051954;28;20949;-52
2022/12/06 02:29:32;;;;;;;61.60;50.73;;;4.10;99.90;;;;;;5064122;28;20264;-52
2022/12/06 02:32:08;;;;;;;86.77;57.60;;;4.10;99.90;;;;;;5080158;28;20296;-52
2022/12/06 02:34:44;;;;;;;101.93;69.90;;;4.10;99.90;;;;;;5079446;28;20227;-52
2022/12/06 02:37:16;;;;;;;47.23;42.40;;;4.10;99.90;;;;;;5079402;28;20302;-52
2022/12/06 02:39:48;;;;;;;50.40;37.03;;;4.10;99.90;;;;;;5086484;28;20327;-52
2022/12/06 02:42:19;;;;;;;116.40;66.60;;;4.10;99.90;;;;;;5089793;28;20215;-52
2022/12/06 02:44:51;;;;;;;36.60;33.27;;;4.00;99.90;;;;;;5085646;28;20671;-52
2022/12/06 02:47:25;;;;;;;41.23;32.47;;;4.00;99.90;;;;;;5068433;28;20297;-52
2022/12/06 02:49:54;;;;;;;58.17;42.67;;;4.10;99.90;;;;;;5069549;28;20285;-52
2022/12/06 02:52:26;;;;;;;55.93;37.03;;;4.10;99.90;;;;;;5069013;28;20761;-52
2022/12/06 02:54:57;;;;;;;38.20;34.23;;;4.10;99.90;;;;;;5069558;28;20289;-52
2022/12/06 02:57:34;;;;;;;35.67;32.33;;;4.10;99.90;;;;;;5067217;28;20207;-52
2022/12/06 03:00:22;;;;;;;45.70;41.23;;;4.20;99.90;;;;;;5069457;28;20676;-52
2022/12/06 03:02:54;;;;;;;33.93;30.63;;;4.20;99.90;;;;;;5068693;28;20296;-52
2022/12/06 03:05:33;;;;;;;42.57;34.73;;;4.10;99.90;;;;;;5069299;28;20212;-52
2022/12/06 03:08:13;;;;;;;70.63;47.20;;;4.00;99.90;;;;;;5068208;28;20263;-52
2022/12/06 03:10:47;;;;;;;37.67;33.97;;;4.10;99.90;;;;;;5069341;28;20261;-52
2022/12/06 03:13:18;;;;;;;90.23;53.50;;;4.10;99.90;;;;;;5068548;28;21016;-52
2022/12/06 03:15:58;;;;;;;36.93;32.37;;;4.00;99.90;;;;;;5069571;28;20574;-52
2022/12/06 03:18:33;;;;;;;42.07;37.97;;;4.00;99.90;;;;;;5056012;28;20228;-52
2022/12/06 03:21:07;;;;;;;29.87;26.60;;;4.10;99.90;;;;;;5068916;28;20286;-52
2022/12/06 03:23:39;;;;;;;36.33;30.37;;;4.10;99.90;;;;;;5068520;28;20304;-51
2022/12/06 03:26:13;;;;;;;52.40;45.53;;;4.10;99.90;;;;;;5068390;28;20211;-52
2022/12/06 03:28:45;;;;;;;28.37;25.40;;;4.20;99.90;;;;;;5068611;28;20311;-52
2022/12/06 03:31:15;;;;;;;58.90;44.70;;;4.10;99.90;;;;;;5061538;28;20302;-52
2022/12/06 03:33:49;;;;;;;38.40;34.40;;;4.10;99.90;;;;;;5068626;28;20577;-52
2022/12/06 03:36:18;;;;;;;41.10;36.90;;;4.10;99.90;;;;;;5067988;28;20311;-52
2022/12/06 03:38:51;;;;;;;118.63;63.60;;;4.10;99.90;;;;;;5068708;28;20262;-52
2022/12/06 03:41:22;;;;;;;25.63;23.03;;;4.10;99.90;;;;;;5069279;28;20241;-52
2022/12/06 03:43:51;;;;;;;69.70;30.40;;;4.00;99.90;;;;;;5068116;28;20288;-52
2022/12/06 03:46:21;;;;;;;45.07;35.10;;;4.10;99.90;;;;;;5061941;28;20231;-52
2022/12/06 03:48:55;;;;;;;45.67;32.87;;;4.00;99.90;;;;;;5066303;28;20605;-52
2022/12/06 03:51:27;;;;;;;110.93;69.37;;;4.10;99.90;;;;;;5068343;28;20209;-52
2022/12/06 03:53:59;;;;;;;48.07;30.40;;;4.10;99.90;;;;;;5068107;28;20309;-52
2022/12/06 03:56:27;;;;;;;28.77;25.97;;;4.00;99.90;;;;;;5071638;28;20215;-52
2022/12/06 03:58:55;;;;;;;105.53;70.27;;;4.00;99.90;;;;;;5065351;28;20310;-52
2022/12/06 04:01:23;;;;;;;70.33;25.87;;;4.00;99.90;;;;;;5072823;28;20781;-52
2022/12/06 04:03:53;;;;;;;60.37;42.47;;;3.90;99.90;;;;;;5072594;28;20214;-52
2022/12/06 04:06:21;;;;;;;39.73;35.63;;;3.90;99.90;;;;;;5072615;28;20220;-51
2022/12/06 04:08:49;;;;;;;102.57;49.57;;;3.90;99.90;;;;;;5072911;28;20355;-52
2022/12/06 04:11:18;;;;;;;76.47;43.60;;;3.90;99.90;;;;;;5071264;28;20239;-51
2022/12/06 04:13:46;;;;;;;35.40;24.37;;;4.00;99.90;;;;;;5072270;28;20291;-52
2022/12/06 04:19:15;;;;;;;76.43;51.90;;;4.00;99.90;;;;;;5009697;28;20318;-52
2022/12/06 04:24:29;;;;;;;36.57;29.83;;;4.00;99.90;;;;;;5045758;28;20298;-51
2022/12/06 04:28:40;;;;;;;40.77;36.67;;;4.10;99.90;;;;;;5072393;28;20699;-52
2022/12/06 04:40:50;;;;;;;52.00;37.70;;;4.00;99.90;;;;;;5072326;28;20280;-52
2022/12/06 04:46:04;;;;;;;52.10;46.67;;;4.00;99.90;;;;;;5065235;28;20246;-52
2022/12/06 04:48:32;;;;;;;74.33;51.00;;;4.00;99.90;;;;;;5071706;28;20316;-52
2022/12/06 04:51:01;;;;;;;82.13;48.23;;;4.00;99.90;;;;;;5072397;28;20298;-51
2022/12/06 04:53:29;;;;;;;33.10;30.00;;;4.00;99.90;;;;;;5063155;28;20325;-52
2022/12/06 04:55:58;;;;;;;67.50;37.20;;;4.00;99.90;;;;;;5071882;28;20806;-52
2022/12/06 04:58:26;;;;;;;38.57;29.93;;;4.00;99.90;;;;;;5066423;28;20243;-52
2022/12/06 05:00:55;;;;;;;35.10;32.03;;;4.10;99.90;;;;;;5071359;28;20264;-52
2022/12/06 05:03:23;;;;;;;49.87;34.70;;;4.10;99.90;;;;;;5071536;28;20237;-52
2022/12/06 05:05:51;;;;;;;22.77;20.37;;;4.10;99.90;;;;;;5064915;28;20212;-51
2022/12/06 05:08:20;;;;;;;28.53;25.57;;;4.10;99.90;;;;;;5071487;28;20329;-52
2022/12/06 05:10:50;;;;;;;72.90;39.00;;;4.00;99.90;;;;;;5071637;28;20211;-52
2022/12/06 05:13:19;;;;;;;74.30;57.63;;;3.90;99.90;;;;;;5070911;28;20696;-52
2022/12/06 05:15:51;;;;;;;37.53;31.40;;;3.90;99.90;;;;;;5071397;28;20293;-51
2022/12/06 05:18:19;;;;;;;85.70;54.80;;;3.90;99.90;;;;;;5071191;28;20700;-51
2022/12/06 05:20:47;;;;;;;66.77;50.50;;;4.00;99.90;;;;;;5071066;28;20633;-50
2022/12/06 05:23:16;;;;;;;31.90;26.93;;;3.90;99.90;;;;;;5069847;28;20575;-52
2022/12/06 05:25:45;;;;;;;35.00;28.17;;;3.90;99.90;;;;;;5069442;28;20710;-52
2022/12/06 05:28:13;;;;;;;35.37;30.73;;;4.00;99.90;;;;;;5069501;28;20307;-52
2022/12/06 05:30:41;;;;;;;45.77;40.97;;;4.00;99.90;;;;;;5063419;28;20211;-52
2022/12/06 05:33:09;;;;;;;48.23;36.97;;;4.00;99.90;;;;;;5065962;28;20210;-51
2022/12/06 05:35:39;;;;;;;46.20;36.57;;;4.10;99.90;;;;;;5058854;28;20240;-52
2022/12/06 05:38:07;;;;;;;44.30;38.43;;;4.00;99.90;;;;;;5071583;28;20335;-51
2022/12/06 05:40:35;;;;;;;40.17;35.90;;;4.10;99.90;;;;;;5070933;28;20781;-52
2022/12/06 05:43:05;;;;;;;88.43;46.93;;;4.10;99.90;;;;;;5064445;28;20301;-51
2022/12/06 05:45:33;;;;;;;27.03;24.73;;;4.10;99.90;;;;;;5065368;28;20244;-53
2022/12/06 05:48:01;;;;;;;41.53;34.27;;;4.00;99.90;;;;;;5071040;28;20231;-58
2022/12/06 05:50:29;;;;;;;28.60;25.70;;;4.00;99.90;;;;;;5071337;28;20620;-52
2022/12/06 05:52:59;;;;;;;49.47;43.80;;;4.00;99.90;;;;;;5070499;28;20298;-52
2022/12/06 05:55:28;;;;;;;26.27;23.87;;;4.00;99.90;;;;;;5066581;28;20299;-52
2022/12/06 05:57:57;;;;;;;35.17;32.27;;;4.00;99.90;;;;;;5070622;28;20221;-52
2022/12/06 06:00:26;;;;;;;39.13;33.20;;;4.00;99.90;;;;;;5070670;28;20221;-51
2022/12/06 06:02:54;;;;;;;28.17;21.57;;;4.10;99.90;;;;;;5070228;28;20573;-52
2022/12/06 06:05:22;;;;;;;50.87;46.17;;;4.00;99.90;;;;;;5070755;28;20211;-52
2022/12/06 06:07:50;;;;;;;74.57;44.73;;;4.00;99.90;;;;;;5070269;28;20318;-52
2022/12/06 06:10:19;;;;;;;41.90;37.30;;;4.00;99.90;;;;;;5070681;28;20203;-52
2022/12/06 06:12:47;;;;;;;92.17;38.27;;;4.00;99.90;;;;;;5063293;28;20291;-53
2022/12/06 06:15:15;;;;;;;34.43;30.80;;;4.00;99.90;;;;;;5070542;28;20205;-53
2022/12/06 06:17:45;;;;;;;62.53;46.67;;;4.00;99.90;;;;;;5069157;28;20259;-53
2022/12/06 06:20:13;;;;;;;61.33;32.73;;;3.90;99.90;;;;;;5069913;28;20249;-52
2022/12/06 06:22:42;;;;;;;42.90;31.50;;;3.90;99.90;;;;;;5069595;28;20236;-52
2022/12/06 06:25:10;;;;;;;40.20;33.57;;;3.80;99.90;;;;;;5069951;28;20304;-53
2022/12/06 06:27:38;;;;;;;69.10;42.73;;;3.90;99.90;;;;;;5070156;28;20305;-53
2022/12/06 06:30:10;;;;;;;36.73;32.50;;;3.90;99.90;;;;;;5056295;28;20292;-52
2022/12/06 06:32:38;;;;;;;93.47;54.93;;;3.90;99.90;;;;;;5069792;28;20311;-52
2022/12/06 06:35:08;;;;;;;78.67;46.70;;;3.80;99.90;;;;;;5069998;28;20214;-52
2022/12/06 06:37:36;;;;;;;52.33;47.37;;;3.80;99.90;;;;;;5060097;28;20293;-52
2022/12/06 06:40:06;;;;;;;50.67;37.13;;;3.80;99.90;;;;;;5068066;28;20251;-52
2022/12/06 06:42:34;;;;;;;44.00;34.57;;;3.80;99.90;;;;;;5069311;28;20681;-52
2022/12/06 06:45:02;;;;;;;58.13;29.07;;;3.80;99.90;;;;;;5069802;28;20236;-52
2022/12/06 06:47:31;;;;;;;40.50;28.87;;;3.90;99.90;;;;;;5069711;28;20251;-53
2022/12/06 06:49:59;;;;;;;34.97;31.27;;;3.90;99.90;;;;;;5063794;28;20658;-53
2022/12/06 06:52:29;;;;;;;30.47;25.20;;;3.90;99.90;;;;;;5069408;28;20289;-52
2022/12/06 06:54:57;;;;;;;33.00;22.10;;;3.80;99.90;;;;;;5066617;28;20307;-52
2022/12/06 06:57:25;;;;;;;72.00;46.20;;;3.90;99.90;;;;;;5069464;28;20243;-52
2022/12/06 06:59:54;;;;;;;38.90;35.33;;;3.90;99.90;;;;;;5069851;28;20211;-52
2022/12/06 07:02:22;;;;;;;35.60;25.03;;;3.90;99.90;;;;;;5064354;28;20331;-52
2022/12/06 07:04:51;;;;;;;73.50;53.60;;;3.90;99.90;;;;;;5069316;28;20311;-51
2022/12/06 07:07:19;;;;;;;28.23;21.97;;;3.90;99.90;;;;;;5069265;28;20307;-51
2022/12/06 07:09:49;;;;;;;29.87;24.53;;;3.90;99.90;;;;;;5069757;28;20229;-52
2022/12/06 07:12:17;;;;;;;52.77;39.63;;;3.90;99.90;;;;;;5063037;28;20327;-53
2022/12/06 07:14:45;;;;;;;33.70;30.30;;;3.90;99.90;;;;;;5069466;28;20643;-52
2022/12/06 07:17:13;;;;;;;30.57;27.27;;;3.90;99.90;;;;;;5069132;28;20298;-52
2022/12/06 07:19:42;;;;;;;66.77;48.43;;;4.00;99.90;;;;;;5069200;28;20605;-52
2022/12/06 07:22:10;;;;;;;45.57;37.00;;;4.00;99.90;;;;;;5068651;28;20774;-52
2022/12/06 07:24:38;;;;;;;34.30;26.90;;;4.00;99.90;;;;;;5068581;28;20253;-52
2022/12/06 07:27:11;;;;;;;99.37;70.27;;;3.90;99.90;;;;;;5068952;28;20208;-52
2022/12/06 07:29:40;;;;;;;44.27;39.63;;;4.00;99.90;;;;;;5068252;28;20321;-52
2022/12/06 07:32:08;;;;;;;53.10;40.37;;;4.00;99.90;;;;;;5068430;28;20322;-52
2022/12/06 07:34:36;;;;;;;83.30;53.37;;;4.00;99.90;;;;;;5069135;28;20736;-52
2022/12/06 07:37:05;;;;;;;103.87;54.37;;;4.00;99.90;;;;;;5067494;28;20225;-52
2022/12/06 07:39:33;;;;;;;80.67;58.83;;;3.90;99.90;;;;;;5068823;28;20353;-52
2022/12/06 07:45:06;;;;;;;41.97;31.57;;;3.90;99.90;;;;;;5057609;28;20244;-52
2022/12/06 07:47:37;;;;;;;82.67;50.10;;;3.80;99.90;;;;;;5068974;28;20313;-52
2022/12/06 07:50:08;;;;;;;43.03;38.53;;;3.90;99.90;;;;;;5068963;28;20252;-52
2022/12/06 07:52:44;;;;;;;94.60;74.73;;;3.90;99.90;;;;;;5068489;28;20213;-52
2022/12/06 07:55:13;;;;;;;89.17;44.63;;;3.90;99.90;;;;;;5068761;28;20686;-53
2022/12/06 07:57:41;;;;;;;38.13;32.60;;;3.90;99.90;;;;;;5059165;28;20240;-52
2022/12/06 08:00:14;;;;;;;57.77;35.30;;;4.00;99.90;;;;;;5068802;28;20227;-52
2022/12/06 08:02:43;;;;;;;23.03;20.70;;;4.00;99.90;;;;;;5068000;28;20922;-52
2022/12/06 08:05:11;;;;;;;49.03;35.57;;;4.10;99.90;;;;;;5061211;28;20205;-52
2022/12/06 08:07:40;;;;;;;207.73;82.53;;;4.10;99.90;;;;;;5066010;28;20241;-53
2022/12/06 08:10:08;;;;;;;31.10;28.27;;;4.10;99.90;;;;;;5068764;28;20246;-52
2022/12/06 08:12:37;;;;;;;45.30;40.67;;;4.10;99.90;;;;;;5068114;28;20238;-52
2022/12/06 08:15:11;;;;;;;35.23;31.40;;;4.00;99.90;;;;;;5068818;28;20290;-52
2022/12/06 08:17:41;;;;;;;47.47;42.90;;;4.10;99.90;;;;;;5062833;28;20252;-53
2022/12/06 08:20:11;;;;;;;33.53;27.87;;;4.10;99.90;;;;;;5068667;28;20738;-53
2022/12/06 08:22:39;;;;;;;39.13;29.70;;;4.00;99.90;;;;;;5054532;28;20317;-52
2022/12/06 08:25:08;;;;;;;23.03;20.97;;;4.10;99.90;;;;;;5068504;28;20213;-53
2022/12/06 08:27:36;;;;;;;59.70;35.83;;;4.10;99.90;;;;;;5068731;28;20244;-52
2022/12/06 08:30:05;;;;;;;42.67;36.83;;;4.10;99.90;;;;;;5068829;28;20206;-53
2022/12/06 08:32:33;;;;;;;70.93;44.07;;;4.10;99.90;;;;;;5067845;28;20289;-52
2022/12/06 08:35:03;;;;;;;38.13;34.03;;;4.10;99.90;;;;;;5059113;28;20641;-51
2022/12/06 08:37:31;;;;;;;94.20;59.20;;;4.10;99.90;;;;;;5068647;28;20595;-58
2022/12/06 08:39:59;;;;;;;46.73;41.97;;;4.20;99.90;;;;;;5068012;28;20220;-52
2022/12/06 08:42:27;;;;;;;27.97;25.57;;;4.20;99.90;;;;;;5070764;28;20358;-52
2022/12/06 08:44:55;;;;;;;108.43;58.93;;;4.20;99.90;;;;;;5071997;28;20295;-51
2022/12/06 08:47:23;;;;;;;135.60;74.03;;;4.20;99.90;;;;;;5071815;28;20303;-52
2022/12/06 08:49:51;;;;;;;82.77;48.73;;;4.20;99.90;;;;;;5071878;28;20736;-52
2022/12/06 08:52:21;;;;;;;43.60;33.90;;;4.20;99.90;;;;;;5060980;28;20232;-53
2022/12/06 08:54:49;;;;;;;83.90;47.83;;;4.20;99.90;;;;;;5072073;28;20241;-51
2022/12/06 08:57:17;;;;;;;77.43;39.63;;;4.30;99.90;;;;;;5071486;28;20300;-53
2022/12/06 08:59:45;;;;;;;62.03;55.93;;;4.30;99.90;;;;;;5065602;28;20319;-52
2022/12/06 09:02:13;;;;;;;43.93;36.47;;;4.30;99.90;;;;;;5070409;28;20274;-53
2022/12/06 09:04:42;;;;;;;107.13;62.03;;;4.30;99.90;;;;;;5071403;28;20685;-52
2022/12/06 09:07:10;;;;;;;33.57;30.43;;;4.30;99.90;;;;;;5068819;28;20215;-52
2022/12/06 09:09:40;;;;;;;35.23;30.47;;;4.30;99.90;;;;;;5071533;28;20795;-52
2022/12/06 09:12:08;;;;;;;73.87;44.50;;;4.30;99.90;;;;;;5061484;28;20212;-52
2022/12/06 09:14:37;;;;;;;168.73;65.23;;;4.30;99.90;;;;;;5070109;28;20225;-51
2022/12/06 09:17:06;;;;;;;44.43;39.97;;;4.40;99.90;;;;;;5060426;28;20284;-54
2022/12/06 09:19:34;;;;;;;378.40;84.23;;;4.40;99.90;;;;;;5071934;28;20352;-52
2022/12/06 09:22:02;;;;;;;56.80;50.80;;;4.40;99.90;;;;;;5071048;28;20322;-52
2022/12/06 09:24:30;;;;;;;38.43;34.20;;;4.40;99.90;;;;;;5071725;28;20302;-52
2022/12/06 09:27:00;;;;;;;35.27;27.93;;;4.50;99.90;;;;;;5070766;28;20255;-52
2022/12/06 09:29:28;;;;;;;34.67;31.30;;;4.50;99.90;;;;;;5066081;28;20270;-52
2022/12/06 09:31:56;;;;;;;26.00;23.50;;;4.60;99.90;;;;;;5070672;28;20289;-52
2022/12/06 09:34:24;;;;;;;38.83;34.93;;;4.60;99.90;;;;;;5058613;28;20302;-52
2022/12/06 09:36:56;;;;;;;44.57;34.17;;;4.50;99.90;;;;;;5071306;28;20296;-52
2022/12/06 09:39:30;;;;;;;52.50;39.67;;;4.50;99.90;;;;;;5057692;28;20265;-54
2022/12/06 09:42:26;;;;;;;44.47;40.23;;;4.60;99.90;;;;;;5070714;28;20293;-52
2022/12/06 09:45:18;;;;;;;44.07;38.93;;;4.60;99.90;;;;;;5058403;28;20208;-52
2022/12/06 09:48:10;;;;;;;77.93;52.50;;;4.60;99.90;;;;;;5070911;28;20314;-52
2022/12/06 09:50:47;;;;;;;40.27;34.00;;;4.50;99.90;;;;;;5067323;28;20208;-52
2022/12/06 09:53:23;;;;;;;29.23;24.23;;;4.50;99.90;;;;;;5065915;28;20215;-52
2022/12/06 09:56:02;;;;;;;47.73;40.97;;;4.60;99.90;;;;;;5073992;28;20214;-52
2022/12/06 09:58:45;;;;;;;37.37;33.47;;;4.70;99.90;;;;;;5089303;28;20892;-52
2022/12/06 10:01:21;;;;;;;30.43;27.33;;;4.70;99.90;;;;;;5090334;28;20293;-52
2022/12/06 10:04:03;;;;;;;28.90;25.77;;;4.70;99.90;;;;;;5090364;28;20645;-52
2022/12/06 10:06:40;;;;;;;33.93;29.37;;;4.80;99.90;;;;;;5066771;28;20306;-52
2022/12/06 10:09:35;;;;;;;55.77;49.73;;;4.80;99.90;;;;;;5090765;28;20763;-51
2022/12/06 10:12:20;;;;;;;39.60;35.73;;;4.90;99.90;;;;;;5080000;28;20433;-52
2022/12/06 10:15:08;;;;;;;43.73;35.00;;;4.90;99.90;;;;;;5084337;28;20304;-52
2022/12/06 10:17:47;;;;;;;56.03;33.37;;;4.90;99.90;;;;;;5090858;28;20291;-52
2022/12/06 10:20:29;;;;;;;35.77;26.47;;;4.90;99.90;;;;;;5054876;28;20215;-51
2022/12/06 10:23:12;;;;;;;72.20;58.53;;;4.80;99.90;;;;;;5076101;28;20224;-53
2022/12/06 10:25:45;;;;;;;25.17;22.97;;;4.90;99.90;;;;;;5072782;28;20214;-52
2022/12/06 10:28:21;;;;;;;59.10;45.47;;;4.90;99.90;;;;;;5088797;28;20270;-53
2022/12/06 10:30:56;;;;;;;37.43;33.67;;;4.90;99.90;;;;;;5078484;28;20774;-52
2022/12/06 10:33:33;;;;;;;132.97;78.73;;;4.90;99.90;;;;;;5062083;28;20201;-51
2022/12/06 10:36:04;;;;;;;98.57;52.20;;;5.00;99.90;;;;;;5086700;28;20675;-52
2022/12/06 10:38:39;;;;;;;71.80;37.80;;;4.90;99.90;;;;;;5068773;28;20317;-52
2022/12/06 10:41:15;;;;;;;37.83;34.00;;;5.00;99.90;;;;;;5069651;28;20205;-52
2022/12/06 10:43:52;;;;;;;84.37;49.93;;;5.00;99.90;;;;;;5068157;28;20313;-51
2022/12/06 10:49:23;;;;;;;25.60;20.73;;;5.00;99.90;;;;;;5068841;28;20233;-51
2022/12/06 10:52:01;;;;;;;36.73;32.83;;;5.00;99.90;;;;;;5069344;28;20228;-52
2022/12/06 10:54:36;;;;;;;114.57;54.37;;;5.00;99.90;;;;;;5069232;28;20208;-51
2022/12/06 10:57:11;;;;;;;67.60;45.57;;;5.00;99.90;;;;;;5055717;28;20300;-53
2022/12/06 10:59:43;;;;;;;82.40;35.20;;;5.10;99.90;;;;;;5069553;28;20641;-54
2022/12/06 11:02:24;;;;;;;64.73;50.43;;;5.20;99.90;;;;;;5068951;28;20233;-52
2022/12/06 11:04:56;;;;;;;34.63;31.00;;;5.20;99.90;;;;;;5069252;28;20254;-52
2022/12/06 11:07:33;;;;;;;68.50;42.27;;;5.20;99.90;;;;;;5069105;28;20332;-52
2022/12/06 11:10:02;;;;;;;88.73;67.07;;;5.20;99.90;;;;;;5060769;28;20228;-51
2022/12/06 11:12:34;;;;;;;43.93;39.30;;;5.30;99.90;;;;;;5066323;28;20215;-52
2022/12/06 11:15:13;;;;;;;27.37;23.70;;;5.30;99.90;;;;;;5069322;28;20208;-52
2022/12/06 11:17:46;;;;;;;132.13;65.87;;;5.20;99.90;;;;;;5069129;28;20690;-52
2022/12/06 11:20:22;;;;;;;44.73;36.33;;;5.40;99.90;;;;;;5069449;28;20292;-52
2022/12/06 11:23:04;;;;;;;57.63;39.47;;;5.50;99.90;;;;;;5064381;28;20253;-52
2022/12/06 11:25:43;;;;;;;56.53;40.33;;;5.50;99.90;;;;;;5063335;28;20637;-52
2022/12/06 11:28:25;;;;;;;77.70;41.03;;;5.40;99.90;;;;;;5068294;28;20333;-52
2022/12/06 11:30:55;;;;;;;40.20;32.90;;;5.50;99.90;;;;;;5069486;28;20298;-51
2022/12/06 11:33:30;;;;;;;32.20;27.70;;;5.60;99.90;;;;;;5065359;28;20239;-52
2022/12/06 11:36:02;;;;;;;26.03;23.23;;;5.60;99.90;;;;;;5061206;28;20202;-52
2022/12/06 11:38:31;;;;;;;93.83;43.03;;;5.70;99.90;;;;;;5068075;28;20710;-53
2022/12/06 11:40:59;;;;;;;78.23;36.33;;;5.70;99.90;;;;;;5069283;28;20251;-54
2022/12/06 11:43:34;;;;;;;37.43;33.27;;;5.60;99.90;;;;;;5067952;28;20790;-51
2022/12/06 11:46:04;;;;;;;71.93;37.53;;;5.50;99.90;;;;;;5064201;28;20660;-52
2022/12/06 11:48:35;;;;;;;51.27;42.30;;;5.50;99.90;;;;;;5066617;28;20316;-51
2022/12/06 11:51:04;;;;;;;271.57;86.73;;;5.50;99.90;;;;;;5068910;28;20790;-51
2022/12/06 11:53:37;;;;;;;44.50;34.50;;;5.50;99.90;;;;;;5067649;28;20410;-52
2022/12/06 11:56:15;;;;;;;248.70;58.27;;;5.50;99.90;;;;;;5068850;28;20209;-52
2022/12/06 11:58:58;;;;;;;35.63;28.83;;;5.40;99.90;;;;;;5062825;28;20715;-52
2022/12/06 12:01:38;;;;;;;67.90;34.73;;;5.50;99.90;;;;;;5056265;28;20217;-52
2022/12/06 12:04:30;;;;;;;133.03;72.30;;;5.50;99.90;;;;;;5067357;28;20230;-52
2022/12/06 12:07:00;;;;;;;192.27;88.77;;;5.50;99.90;;;;;;5050474;28;20302;-52
2022/12/06 12:09:31;;;;;;;45.63;36.10;;;5.60;99.90;;;;;;5056917;28;20320;-51
2022/12/06 12:12:05;;;;;;;1999.90;999.90;;;5.60;99.90;;;;;;5066276;28;20525;-52
2022/12/06 12:14:39;;;;;;;260.20;111.33;;;6.00;99.90;;;;;;5068174;28;20280;-52
2022/12/06 12:17:17;;;;;;;224.60;66.07;;;5.80;99.90;;;;;;5077056;28;20233;-53
2022/12/06 12:19:51;;;;;;;235.57;81.97;;;5.80;99.90;;;;;;5073176;28;20305;-52
2022/12/06 12:22:30;;;;;;;166.53;65.47;;;5.80;99.90;;;;;;5071841;28;20294;-53
2022/12/06 12:25:00;;;;;;;50.20;37.07;;;5.80;99.90;;;;;;5072100;28;20231;-52
2022/12/06 12:27:49;;;;;;;70.90;42.33;;;5.80;99.90;;;;;;5072003;28;20343;-52
2022/12/06 12:30:21;;;;;;;114.67;62.43;;;5.80;99.90;;;;;;5072538;28;20205;-52
2022/12/06 12:32:51;;;;;;;50.43;39.80;;;5.80;99.90;;;;;;5071441;28;20233;-51
2022/12/06 12:35:29;;;;;;;42.93;38.37;;;5.80;99.90;;;;;;5069356;28;20201;-51
2022/12/06 12:37:59;;;;;;;33.30;29.70;;;5.70;99.90;;;;;;5071838;28;20315;-52
2022/12/06 12:40:33;;;;;;;181.47;72.47;;;5.80;99.90;;;;;;5072210;28;20195;-52
2022/12/06 12:43:07;;;;;;;92.37;36.77;;;5.70;99.90;;;;;;5071307;28;20297;-52
2022/12/06 12:45:35;;;;;;;59.57;33.30;;;5.70;99.90;;;;;;5071792;28;20665;-52
2022/12/06 12:48:20;;;;;;;60.60;39.27;;;5.70;99.90;;;;;;5071928;28;20253;-52
2022/12/06 12:50:54;;;;;;;89.10;43.83;;;5.70;99.90;;;;;;5070492;28;20284;-52
2022/12/06 12:53:30;;;;;;;19.97;17.30;;;5.70;99.90;;;;;;5071507;28;20211;-52
2022/12/06 12:56:07;;;;;;;32.70;27.33;;;5.80;99.90;;;;;;5072020;28;20576;-53
2022/12/06 12:58:35;;;;;;;23.33;17.83;;;5.70;99.90;;;;;;5071796;28;20264;-51
2022/12/06 13:01:11;;;;;;;19.73;17.33;;;5.70;99.90;;;;;;5068322;28;20685;-53
2022/12/06 13:03:40;;;;;;;35.17;24.73;;;5.80;99.90;;;;;;5073762;28;20282;-52
2022/12/06 13:06:31;;;;;;;51.80;36.67;;;5.80;99.90;;;;;;5077167;28;20310;-52
2022/12/06 13:09:03;;;;;;;117.77;49.67;;;5.80;99.90;;;;;;5083072;28;20742;-51
2022/12/06 13:11:36;;;;;;;63.43;33.23;;;5.80;99.90;;;;;;5076750;28;20200;-52
2022/12/06 13:14:05;;;;;;;94.97;49.63;;;5.70;99.90;;;;;;5091333;28;20299;-52
2022/12/06 13:16:36;;;;;;;48.93;43.73;;;5.70;99.90;;;;;;5091559;28;20297;-52
2022/12/06 13:19:04;;;;;;;130.07;68.83;;;5.70;99.90;;;;;;5083356;28;20233;-52
2022/12/06 13:21:36;;;;;;;47.73;38.67;;;5.70;99.90;;;;;;5085497;28;20690;-52
2022/12/06 13:24:12;;;;;;;56.67;30.33;;;5.70;99.90;;;;;;5090503;28;20342;-52